Oneida, Kansas
Current Conditions -  °F | °C
As of 11:53 PM on Thursday 18 Dec 2014 (Local Time) from KFNB Reporting Station
Haze Haze  
Wind Chill: 30°   Ceiling: 900
Heat Index: 30°   Visibility: 6mi
Dew Point: 27°   Wind: 0mph
Humidity: 88%   Direction: NA
Pressure: 30.26"   Gusts: NA
Location:  39.86°N, 95.94°W
Report Text: KFNB 190553Z AUTO 00000KT 6SM BR OVC009 M01/M03 A3026 RMK AO2 CIG 007V011 SLP258 T10111028 11011 21017 410061028 50006
Loading
Personal Weather Stations






























Interactive Weather Map New forecast layout! Learn more

10-Day Weather Forecast

Advertisements
Track Severe Weather on mobile